Time;durP1;ratioP1;P1;durP2;ratioP2;P2;SDS_P1;SDS_P2;PMS_P1;PMS_P2;Temp;Humidity;BMP_temperature;BMP_pressure;BME280_temperature;BME280_humidity;BME280_pressure;Samples;Min_cycle;Max_cycle;Signal;HPM_P1;HPM_P2
2024/03/22 00:02:11;;;;;;;41.67;21.80;;;;;;;-144.05;76.49;56959.28;5015904;28;20029;-80
2024/03/22 00:04:37;;;;;;;46.80;22.60;;;;;;;-144.05;76.54;56957.16;5016399;28;20038;-84
2024/03/22 00:07:04;;;;;;;40.60;22.48;;;;;;;-144.05;77.04;56944.41;5015642;28;20018;-80
2024/03/22 00:09:31;;;;;;;45.85;22.13;;;;;;;-144.05;76.62;56918.94;5014896;28;20491;-81
2024/03/22 00:11:57;;;;;;;42.72;20.13;;;;;;;-144.05;77.01;56963.53;5011804;28;20034;-82
2024/03/22 00:14:23;;;;;;;48.13;22.25;;;;;;;-144.05;76.84;56980.53;5031957;28;20097;-81
2024/03/22 00:16:49;;;;;;;45.58;21.95;;;;;;;-144.05;77.05;56955.03;5025389;28;20149;-84
2024/03/22 00:19:16;;;;;;;41.55;20.45;;;;;;;-144.05;76.87;56955.03;5015059;28;20022;-81
2024/03/22 00:21:42;;;;;;;43.28;20.60;;;;;;;-144.05;77.14;56944.41;5015180;28;20092;-83
2024/03/22 00:24:08;;;;;;;40.13;20.75;;;;;;;-144.05;77.73;56948.66;5016196;28;20113;-81
2024/03/22 00:26:34;;;;;;;45.58;21.80;;;;;;;-144.05;77.46;56933.78;5029580;28;20032;-82
2024/03/22 00:29:01;;;;;;;40.13;20.85;;;;;;;-144.05;77.50;56965.66;5015672;28;20553;-82
2024/03/22 00:31:27;;;;;;;42.70;20.90;;;;;;;-144.05;77.51;56952.91;5015720;28;20057;-83
2024/03/22 00:33:53;;;;;;;41.38;21.50;;;;;;;-144.05;77.48;56931.66;5016652;28;20026;-81
2024/03/22 00:36:20;;;;;;;41.10;20.75;;;;;;;-144.05;77.23;56942.28;5012500;28;20033;-82
2024/03/22 00:38:47;;;;;;;41.28;20.38;;;10.10;99.90;;;-144.05;77.49;56944.41;5013873;28;20033;-82
2024/03/22 00:41:13;;;;;;;40.33;21.55;;;;;;;-144.05;77.85;56948.66;5014928;28;20034;-82
2024/03/22 00:43:40;;;;;;;45.88;21.25;;;;;;;-144.05;77.94;56963.53;5015163;28;20030;-80
2024/03/22 00:46:07;;;;;;;45.45;21.38;;;;;;;-144.05;77.73;56952.91;5015242;28;20037;-81
2024/03/22 00:48:35;;;;;;;45.95;21.38;;;;;;;-144.05;78.05;56931.66;5014323;28;20030;-82
2024/03/22 00:51:01;;;;;;;44.17;20.95;;;;;;;-144.05;78.15;56967.78;5015426;28;20026;-81
2024/03/22 00:53:28;;;;;;;44.50;21.00;;;;;;;-144.05;77.93;56946.53;5014769;28;20037;-83
2024/03/22 00:55:56;;;;;;;43.67;20.83;;;10.60;99.90;;;-144.05;78.06;56944.41;5017156;28;20034;-82
2024/03/22 00:58:22;;;;;;;41.95;21.75;;;;;;;-144.05;77.56;56938.03;5015651;28;20034;-82
2024/03/22 01:00:48;;;;;;;39.20;19.42;;;;;;;-144.05;77.69;56969.91;5015209;28;20061;-82
2024/03/22 01:03:14;;;;;;;45.33;19.88;;;;;;;-144.05;77.52;56931.66;5014182;28;20084;-83
2024/03/22 01:05:42;;;;;;;39.00;19.13;;;;;;;-144.05;77.21;56950.78;5018415;28;20040;-82
2024/03/22 01:08:08;;;;;;;41.97;19.63;;;;;;;-144.05;77.00;56950.78;5025335;28;20017;-82
2024/03/22 01:10:35;;;;;;;39.38;19.67;;;;;;;-144.05;76.92;56912.56;5017245;28;20038;-83
2024/03/22 01:13:01;;;;;;;37.95;19.05;;;;;;;-144.05;76.87;56942.28;5016230;28;20025;-80
2024/03/22 01:15:27;;;;;;;38.30;19.45;;;;;;;-144.05;76.89;56946.53;5014950;28;20092;-82
2024/03/22 01:17:54;;;;;;;41.10;20.60;;;;;;;-144.05;76.62;56929.53;5014712;28;20038;-80
2024/03/22 01:20:20;;;;;;;34.70;18.10;;;;;;;-144.05;76.75;56904.06;5013845;28;20026;-83
2024/03/22 01:22:46;;;;;;;41.22;19.80;;;;;;;-144.05;76.97;56912.56;5011869;28;20044;-83
2024/03/22 01:25:13;;;;;;;40.50;20.35;;;;;;;-144.05;76.84;56914.69;5013126;28;20117;-81
2024/03/22 01:27:39;;;;;;;36.70;18.55;;;;;;;-144.05;77.15;56921.06;5013639;28;20574;-82
2024/03/22 01:30:06;;;;;;;38.45;18.58;;;;;;;-144.05;76.25;56929.53;5014327;28;20034;-81
2024/03/22 01:32:32;;;;;;;38.30;19.25;;;;;;;-144.05;75.88;56948.66;5014158;28;20046;-82
2024/03/22 01:34:59;;;;;;;40.15;19.08;;;;;;;-144.05;75.99;56925.28;5014491;28;20033;-82
2024/03/22 01:37:25;;;;;;;36.47;19.17;;;;;;;-144.05;75.88;56942.28;5014203;28;20025;-82
2024/03/22 01:39:51;;;;;;;38.28;19.27;;;;;;;-144.05;76.02;56925.28;5006853;28;20041;-82
2024/03/22 01:42:17;;;;;;;34.92;18.67;;;;;;;-144.05;76.10;56938.03;5014233;28;20049;-82
2024/03/22 01:44:44;;;;;;;36.38;17.98;;;;;;;-144.05;76.00;56957.16;5014148;28;20064;-81
2024/03/22 01:47:10;;;;;;;41.50;20.02;;;;;;;-144.05;75.64;56959.28;5014155;28;20021;-81
2024/03/22 01:49:37;;;;;;;33.60;18.65;;;;;;;-144.05;76.47;56955.03;5014066;28;20057;-80
2024/03/22 01:52:04;;;;;;;38.22;18.05;;;;;;;-144.05;77.03;56931.66;5012992;28;20399;-82
2024/03/22 01:54:31;;;;;;;40.92;19.30;;;;;;;-144.05;76.71;56950.78;5012723;28;20029;-81
2024/03/22 01:56:58;;;;;;;38.13;18.92;;;;;;;-144.05;76.33;56978.41;5014807;28;20041;-82
2024/03/22 01:59:26;;;;;;;41.75;19.73;;;;;;;-144.05;76.50;56991.13;5014000;28;20037;-81
2024/03/22 02:01:52;;;;;;;36.50;18.35;;;;;;;-144.05;76.87;56946.53;5021796;28;20511;-81
2024/03/22 02:04:18;;;;;;;36.83;18.50;;;;;;;-144.05;76.78;56955.03;5014089;28;20029;-82
2024/03/22 02:06:44;;;;;;;36.40;17.92;;;;;;;-144.05;76.96;56950.78;5013664;28;20368;-82
2024/03/22 02:09:11;;;;;;;39.30;19.48;;;;;;;-144.05;76.67;56959.28;5014787;28;20415;-82
2024/03/22 02:11:39;;;;;;;42.38;19.98;;;11.50;99.90;;;-144.05;76.92;56904.06;5013609;28;20033;-82
2024/03/22 02:14:05;;;;;;;40.28;18.38;;;;;;;-144.05;76.76;56940.16;5014076;28;20403;-84
2024/03/22 02:16:32;;;;;;;37.15;17.85;;;;;;;-144.05;76.39;56933.78;5015356;28;20091;-84
2024/03/22 02:18:59;;;;;;;37.83;18.48;;;;;;;-144.05;76.39;56921.06;5015506;28;20025;-83
2024/03/22 02:21:25;;;;;;;44.60;19.02;;;;;;;-144.05;77.17;56950.78;5014894;28;20109;-82
2024/03/22 02:23:51;;;;;;;36.97;18.90;;;;;;;-144.05;76.56;56929.53;5009753;28;20064;-84
2024/03/22 02:26:17;;;;;;;39.22;18.75;;;;;;;-144.05;76.75;56938.03;5016351;28;20038;-81
2024/03/22 02:28:44;;;;;;;41.80;18.73;;;;;;;-144.05;77.23;56942.28;5031122;28;20041;-81
2024/03/22 02:31:10;;;;;;;39.97;18.90;;;;;;;-144.05;77.26;56938.03;5029425;28;20037;-82
2024/03/22 02:33:36;;;;;;;36.92;18.40;;;;;;;-144.05;77.14;56959.28;5027526;28;20444;-81
2024/03/22 02:36:02;;;;;;;37.53;18.25;;;;;;;-144.05;77.09;56948.66;5028937;28;20022;-81
2024/03/22 02:38:29;;;;;;;39.22;16.42;;;;;;;-144.05;76.91;56959.28;5021581;28;20037;-80
2024/03/22 02:40:55;;;;;;;36.88;17.80;;;;;;;-144.05;76.89;56921.06;5043341;28;20034;-81
2024/03/22 02:43:21;;;;;;;39.75;19.42;;;;;;;-144.05;76.89;56933.78;5033532;28;20030;-80
2024/03/22 02:45:48;;;;;;;32.33;16.33;;;8.50;99.90;;;-144.05;76.19;56940.16;5015058;28;20022;-80
2024/03/22 02:48:14;;;;;;;33.85;16.20;;;;;;;-144.05;75.89;56908.31;5013437;28;20054;-83
2024/03/22 02:50:41;;;;;;;37.08;18.48;;;;;;;-144.05;76.29;56921.06;5012130;28;20458;-83
2024/03/22 02:53:07;;;;;;;41.28;18.42;;;;;;;-144.05;76.52;56972.03;5013574;28;20510;-80
2024/03/22 02:55:41;;;;;;;33.25;16.92;;;12.00;99.90;;;-144.05;76.59;56940.16;5012133;28;20030;-81
2024/03/22 02:58:09;;;;;;;37.75;17.60;;;11.10;99.90;;;-144.05;76.27;56967.78;5014110;28;20036;-81
2024/03/22 03:00:38;;;;;;;41.97;17.98;;;10.90;99.90;;;-144.05;76.10;56955.03;5038516;28;20088;-81
2024/03/22 03:03:08;;;;;;;39.47;17.10;;;11.30;99.90;;;-144.05;75.92;56908.31;5032366;28;20049;-81
2024/03/22 03:05:37;;;;;;;37.08;18.67;;;;;;;-144.05;76.03;56942.28;5017552;28;20022;-83
2024/03/22 03:08:04;;;;;;;38.00;17.77;;;;;;;-144.05;75.67;56946.53;5017841;28;20113;-82
2024/03/22 03:10:30;;;;;;;35.95;17.17;;;;;;;-144.05;75.98;56935.91;5016984;28;20026;-81
2024/03/22 03:12:56;;;;;;;33.40;17.45;;;;;;;-144.05;76.05;56929.53;5016796;28;20073;-80
2024/03/22 03:15:22;;;;;;;33.95;17.33;;;;;;;-144.05;76.44;56940.16;5015833;28;20026;-82
2024/03/22 03:17:49;;;;;;;36.83;17.83;;;;;;;-144.05;76.47;56921.06;5016691;28;20034;-83
2024/03/22 03:20:17;;;;;;;32.20;15.85;;;;;;;-144.05;76.50;56940.16;5018461;28;20067;-81
2024/03/22 03:22:43;;;;;;;37.70;17.42;;;;;;;-144.05;75.72;56955.03;5031352;28;20022;-80
2024/03/22 03:25:09;;;;;;;36.03;18.13;;;;;;;-144.05;75.99;56933.78;5016497;28;20025;-81
2024/03/22 03:27:35;;;;;;;32.55;18.17;;;;;;;-144.05;76.17;56974.16;5014647;28;20036;-82
2024/03/22 03:30:02;;;;;;;32.22;16.75;;;;;;;-144.05;75.96;56959.28;5015257;28;20113;-82
2024/03/22 03:32:28;;;;;;;34.45;17.60;;;;;;;-144.05;76.59;56948.66;5015690;28;20026;-82
2024/03/22 03:34:55;;;;;;;36.80;17.00;;;;;;;-144.05;76.68;56935.91;5015959;28;20403;-82
2024/03/22 03:37:21;;;;;;;41.20;18.65;;;;;;;-144.05;76.80;56914.69;5014802;28;20116;-80
2024/03/22 03:39:47;;;;;;;37.10;18.25;;;;;;;-144.05;76.97;56976.28;5015103;28;20036;-81
2024/03/22 03:42:13;;;;;;;40.38;18.42;;;;;;;-144.05;76.69;56946.53;5016162;28;20018;-82
2024/03/22 03:44:41;;;;;;;33.80;17.70;;;;;;;-144.05;77.09;56946.53;5015675;28;20026;-81
2024/03/22 03:47:07;;;;;;;37.25;17.80;;;;;;;-144.05;76.69;56895.56;5014326;28;20044;-82
2024/03/22 03:49:34;;;;;;;41.78;18.70;;;;;;;-144.05;77.05;56944.41;5015682;28;20032;-81
2024/03/22 03:52:00;;;;;;;36.92;17.90;;;;;;;-144.05;76.99;56948.66;5014317;28;20022;-81
2024/03/22 03:54:26;;;;;;;37.20;17.63;;;;;;;-144.05;77.26;56938.03;5014946;28;20072;-80
2024/03/22 03:56:52;;;;;;;37.03;18.05;;;;;;;-144.05;77.84;56933.78;5015110;28;20105;-81
2024/03/22 03:59:18;;;;;;;37.22;18.40;;;;;;;-144.05;77.68;56942.28;5015502;28;20448;-81
2024/03/22 04:01:45;;;;;;;35.35;17.52;;;;;;;-144.05;77.47;56955.03;5014785;28;20026;-81
2024/03/22 04:04:11;;;;;;;36.40;17.98;;;;;;;-144.05;77.49;56923.19;5014136;28;20112;-80
2024/03/22 04:06:37;;;;;;;33.55;18.23;;;;;;;-144.05;77.88;56938.03;5015034;28;20030;-79
2024/03/22 04:09:03;;;;;;;35.70;18.80;;;;;;;-144.05;78.25;56965.66;5015069;28;20026;-79
2024/03/22 04:11:29;;;;;;;32.15;18.10;;;;;;;-144.05;78.67;56955.03;5012359;28;20033;-78
2024/03/22 04:13:56;;;;;;;38.03;19.08;;;;;;;-144.05;79.49;56957.16;5015168;28;20102;-78
2024/03/22 04:16:22;;;;;;;39.25;19.10;;;;;;;-144.05;78.85;56935.91;5019259;28;20126;-79
2024/03/22 04:18:48;;;;;;;38.67;17.77;;;;;;;-144.05;79.21;56940.16;5028507;28;20025;-82
2024/03/22 04:21:14;;;;;;;37.58;18.15;;;;;;;-144.05;79.37;56935.91;5014244;28;20084;-83
2024/03/22 04:23:41;;;;;;;34.83;19.65;;;;;;;-144.05;79.60;56933.78;5015100;28;20034;-81
2024/03/22 04:26:07;;;;;;;36.95;18.65;;;;;;;-144.05;79.91;56963.53;5014343;28;20022;-80
2024/03/22 04:28:33;;;;;;;40.00;19.92;;;;;;;-144.05;80.24;56944.41;5015395;28;20627;-81
2024/03/22 04:31:09;;;;;;;35.90;19.25;;;11.20;99.90;;;-144.05;80.30;56933.78;5013957;28;20038;-81
2024/03/22 04:33:36;;;;;;;35.10;17.13;;;;;;;-144.05;79.46;56959.28;5014996;28;20101;-82
2024/03/22 04:36:04;;;;;;;36.03;18.77;;;;;;;-144.05;79.34;56955.03;5013275;28;20033;-81
2024/03/22 04:38:31;;;;;;;31.40;17.42;;;;;;;-144.05;79.27;56969.91;5013433;28;20029;-79
2024/03/22 04:40:58;;;;;;;38.90;18.70;;;;;;;-144.05;79.61;56950.78;5014476;28;20029;-83
2024/03/22 04:43:25;;;;;;;37.55;17.15;;;12.20;99.90;;;-144.05;78.89;56933.78;5015465;28;20116;-79
2024/03/22 04:45:52;;;;;;;34.03;17.35;;;;;;;-144.05;78.87;56948.66;5014495;28;20017;-81
2024/03/22 04:48:21;;;;;;;34.17;15.77;;;11.10;99.90;;;-144.05;78.77;56925.28;5013881;28;20034;-83
2024/03/22 04:50:50;;;;;;;34.67;17.95;;;12.30;99.90;;;-144.05;78.08;56921.06;5014106;28;20057;-82
2024/03/22 04:53:17;;;;;;;30.83;17.38;;;;;;;-144.05;78.28;56948.66;5015280;28;20022;-81
2024/03/22 04:55:45;;;;;;;35.35;17.02;;;11.70;99.90;;;-144.05;77.94;56952.91;5014119;28;20041;-83
2024/03/22 04:58:22;;;;;;;28.27;15.63;;;11.40;99.90;;;-144.05;77.79;56938.03;5014595;28;20064;-81
2024/03/22 05:00:49;;;;;;;36.97;17.15;;;;;;;-144.05;77.57;56931.66;5014239;28;20049;-79
2024/03/22 05:03:16;;;;;;;32.15;17.05;;;;;;;-144.05;77.37;56929.53;5014898;28;20040;-81
2024/03/22 05:05:43;;;;;;;35.15;16.88;;;;;;;-144.05;77.64;56972.03;5014578;28;20084;-80
2024/03/22 05:08:09;;;;;;;28.98;16.08;;;;;;;-144.05;77.13;56959.28;5014706;28;20033;-80
2024/03/22 05:10:36;;;;;;;38.20;16.70;;;;;;;-144.05;76.56;56938.03;5014952;28;20052;-81
2024/03/22 05:13:02;;;;;;;32.70;16.45;;;;;;;-144.05;76.15;56944.41;5015359;28;20446;-81
2024/03/22 05:15:29;;;;;;;27.65;14.57;;;;;;;-144.05;76.34;56950.78;5012829;28;20121;-79
2024/03/22 05:17:58;;;;;;;30.30;16.25;;;12.20;99.90;;;-144.05;75.96;56965.66;5013060;28;20029;-80
2024/03/22 05:20:25;;;;;;;26.27;14.07;;;11.60;99.90;;;-144.05;76.04;56963.53;5016783;28;20053;-81
2024/03/22 05:22:52;;;;;;;27.40;14.20;;;;;;;-144.05;75.67;56959.28;5015850;28;20022;-82
2024/03/22 05:25:18;;;;;;;27.75;14.20;;;;;;;-144.05;75.13;56918.94;5013803;28;20037;-83
2024/03/22 05:27:45;;;;;;;25.67;14.18;;;;;;;-144.05;75.10;56967.78;5014507;28;20376;-79
2024/03/22 05:30:13;;;;;;;27.42;14.80;;;12.50;99.90;;;-144.05;74.68;56955.03;5015038;28;20030;-83
2024/03/22 05:32:40;;;;;;;27.98;13.85;;;;;;;-144.05;74.30;56933.78;5015186;28;20053;-81
2024/03/22 05:35:07;;;;;;;25.52;13.40;;;;;;;-144.05;74.03;56940.16;5016544;28;20470;-81
2024/03/22 05:37:34;;;;;;;23.85;14.07;;;;;;;-144.05;73.94;56929.53;5015045;28;20036;-81
2024/03/22 05:40:03;;;;;;;23.38;13.63;;;12.20;99.90;;;-144.05;73.72;56959.28;5016627;28;20026;-85
2024/03/22 05:42:29;;;;;;;28.77;14.45;;;;;;;-144.05;73.03;56957.16;5017454;28;20100;-81
2024/03/22 05:44:56;;;;;;;23.08;14.65;;;12.60;99.90;;;-144.05;72.98;56950.78;5018217;28;20090;-84
2024/03/22 05:47:22;;;;;;;19.23;12.32;;;;;;;-144.05;73.03;56972.03;5016075;28;20040;-82
2024/03/22 05:49:49;;;;;;;24.05;13.98;;;;;;;-144.05;72.69;56940.16;5017315;28;20045;-83
2024/03/22 05:52:15;;;;;;;26.42;13.60;;;;;;;-144.05;73.00;56933.78;5022254;28;20029;-80
2024/03/22 05:54:41;;;;;;;23.08;13.52;;;;;;;-144.05;72.31;56957.16;5032845;28;20026;-81
2024/03/22 05:57:08;;;;;;;29.55;13.20;;;11.80;99.90;;;-144.05;72.40;56948.66;5019299;28;20470;-81
2024/03/22 05:59:34;;;;;;;24.38;12.82;;;;;;;-144.05;71.47;56946.53;5017203;28;20109;-82
2024/03/22 06:02:01;;;;;;;23.88;13.40;;;;;;;-144.05;71.60;56976.28;5018627;28;20056;-80
2024/03/22 06:04:27;;;;;;;20.42;12.68;;;;;;;-144.05;71.41;56950.78;5022084;28;20033;-82
2024/03/22 06:06:53;;;;;;;22.77;12.65;;;;;;;-144.05;70.86;56974.16;5022688;28;20033;-80
2024/03/22 06:09:36;;;;;;;23.35;12.75;;;;;;;-144.05;70.31;56942.28;5022461;28;20068;-84
2024/03/22 06:12:04;;;;;;;21.42;11.45;;;;;;;-144.05;69.88;56940.16;5032801;28;20113;-81
2024/03/22 06:14:31;;;;;;;19.65;12.00;;;;;;;-144.05;69.82;56931.66;5013818;28;20033;-81
2024/03/22 06:16:57;;;;;;;21.48;11.98;;;;;;;-144.05;69.60;56927.41;5017027;28;20026;-82
2024/03/22 06:19:24;;;;;;;21.65;11.90;;;12.30;99.90;;;-144.05;69.02;56931.66;5011227;28;20479;-80
2024/03/22 06:21:51;;;;;;;24.27;12.40;;;;;;;-144.05;68.45;56914.69;5027876;28;20053;-79
2024/03/22 06:24:17;;;;;;;22.98;11.60;;;;;;;-144.05;68.47;56952.91;5032525;28;20034;-81
2024/03/22 06:26:43;;;;;;;19.48;11.35;;;;;;;-144.05;68.08;56912.56;5021194;28;20029;-83
2024/03/22 06:29:09;;;;;;;20.50;10.75;;;;;;;-144.05;67.68;56976.28;5017661;28;20049;-82
2024/03/22 06:31:36;;;;;;;19.38;11.00;;;;;;;-144.05;67.46;56927.41;5017456;28;20053;-82
2024/03/22 06:34:02;;;;;;;21.98;11.38;;;;;;;-144.05;67.66;56965.66;5017498;28;20487;-82
2024/03/22 06:36:32;;;;;;;18.33;10.65;;;12.90;99.90;;;-144.05;67.08;56935.91;5017530;28;20033;-79
2024/03/22 06:38:59;;;;;;;21.63;11.85;;;;;;;-144.05;67.13;56955.03;5019564;28;20022;-81
2024/03/22 06:41:27;;;;;;;17.20;10.73;;;;;;;-144.05;67.01;56946.53;5018407;28;20522;-83
2024/03/22 06:43:53;;;;;;;18.20;9.93;;;;;;;-144.05;66.82;56950.78;5017508;28;20091;-79
2024/03/22 06:46:20;;;;;;;22.00;10.40;;;;;;;-144.05;66.56;56950.78;5016403;28;20033;-84
2024/03/22 06:48:46;;;;;;;17.80;9.38;;;12.20;99.90;;;-144.05;65.98;56931.66;5017887;28;20419;-85
2024/03/22 06:51:12;;;;;;;18.33;9.57;;;;;;;-144.05;67.31;56910.44;5017385;28;20021;-82
2024/03/22 06:53:39;;;;;;;17.90;10.70;;;;;;;-144.05;67.36;56952.91;5018872;28;20092;-81
2024/03/22 06:56:05;;;;;;;21.20;10.52;;;;;;;-144.05;67.95;56942.28;5019612;28;20022;-85
2024/03/22 06:58:31;;;;;;;22.38;11.00;;;;;;;-144.05;67.67;56933.78;5018513;28;20030;-82
2024/03/22 07:00:58;;;;;;;20.10;11.30;;;;;;;-144.05;67.26;56944.41;5017317;28;20093;-83
2024/03/22 07:03:24;;;;;;;19.15;9.80;;;;;;;-144.05;66.56;56931.66;5022858;28;20029;-83
2024/03/22 07:05:50;;;;;;;21.20;10.18;;;;;;;-144.05;67.58;56950.78;5017416;28;20030;-85
2024/03/22 07:08:16;;;;;;;20.08;10.50;;;;;;;-144.05;66.86;56925.28;5017929;28;20090;-82
2024/03/22 09:57:18;;;;;;;19.33;12.00;;;12.40;99.90;;;-144.05;56.16;56929.53;5114180;27;20117;-77
2024/03/22 10:02:33;;;;;;;19.70;11.75;;;12.40;99.90;;;-144.05;55.29;56948.66;5135061;27;20120;-79
2024/03/22 10:05:02;;;;;;;18.88;12.27;;;;;;;-144.05;55.04;56942.28;5116958;22;20044;-76
2024/03/22 10:07:28;;;;;;;20.67;12.30;;;15.00;99.90;;;-144.05;55.38;56918.94;5107889;28;20047;-79
2024/03/22 10:09:58;;;;;;;18.65;12.02;;;15.30;99.90;;;-144.05;55.73;56950.78;5086944;28;20469;-76
2024/03/22 10:12:27;;;;;;;18.88;11.30;;;12.10;99.90;;;-144.05;55.04;56933.78;5081700;28;20093;-78
2024/03/22 10:14:53;;;;;;;17.83;11.30;;;11.90;99.90;;;-144.05;55.58;56938.03;5084059;28;20039;-76
2024/03/22 10:17:20;;;;;;;19.88;11.27;;;16.20;99.90;;;-144.05;53.95;56940.16;5070201;28;20036;-78
2024/03/22 10:19:50;;;;;;;20.55;10.82;;;13.20;99.90;;;-144.05;54.70;56933.78;5087363;28;20020;-78
2024/03/22 10:22:17;;;;;;;18.27;11.15;;;;;;;-144.05;53.96;56927.41;5100744;28;20017;-74
2024/03/22 10:24:44;;;;;;;17.23;11.00;;;12.90;99.90;;;-144.05;54.15;56929.53;5089211;28;20092;-77
2024/03/22 10:27:10;;;;;;;18.55;11.57;;;15.70;99.90;;;-144.05;53.84;56942.28;5081805;28;20117;-79
2024/03/22 10:29:37;;;;;;;22.08;12.40;;;12.70;99.90;;;-144.05;53.47;56940.16;5060128;28;20481;-79
2024/03/22 10:32:03;;;;;;;21.67;10.82;;;16.70;99.90;;;-144.05;52.47;56929.53;5085414;28;20028;-79
2024/03/22 10:34:31;;;;;;;17.20;10.02;;;13.40;99.90;;;-144.05;51.41;56948.66;5086043;28;20400;-79
2024/03/22 10:37:00;;;;;;;14.45;8.82;;;16.60;99.90;;;-144.05;49.90;56925.28;5066949;28;20039;-80
2024/03/22 10:39:28;;;;;;;12.57;8.43;;;15.50;99.90;;;-144.05;50.57;56929.53;5080241;28;20017;-77
2024/03/22 10:41:54;;;;;;;14.70;8.65;;;;;;;-144.05;50.45;56927.41;5083285;28;20486;-79
2024/03/22 10:44:21;;;;;;;15.15;8.68;;;15.40;99.90;;;-144.05;50.38;56938.03;5068805;28;20024;-79
2024/03/22 10:46:49;;;;;;;14.50;8.68;;;13.20;99.90;;;-144.05;49.83;56944.41;5083944;28;20037;-79
2024/03/22 10:49:20;;;;;;;15.25;8.00;;;16.70;99.90;;;-144.05;49.52;56931.66;5086757;28;20024;-80
2024/03/22 10:52:10;;;;;;;16.20;8.65;;;13.30;99.90;;;-144.05;50.01;56927.41;5077490;28;20057;-79
2024/03/22 10:54:45;;;;;;;13.75;8.85;;;15.90;99.90;;;-144.05;49.86;56929.53;5085507;28;20115;-79
2024/03/22 10:57:17;;;;;;;15.10;7.68;;;16.80;99.90;;;-144.05;50.27;56929.53;5080485;28;20023;-80
2024/03/22 10:59:43;;;;;;;14.60;8.50;;;17.00;99.90;;;-144.05;49.21;56938.03;5084929;28;20055;-79
2024/03/22 11:02:11;;;;;;;19.30;8.63;;;13.00;99.90;;;-144.05;49.93;56938.03;5086527;28;20388;-80
2024/03/22 11:04:37;;;;;;;12.65;8.07;;;;;;;-144.05;49.75;56925.28;5065843;28;20073;-78
2024/03/22 11:07:03;;;;;;;11.40;7.78;;;16.80;99.90;;;-144.05;49.30;56935.91;5084596;28;20438;-79
2024/03/22 11:09:30;;;;;;;11.23;7.28;;;13.40;99.90;;;-144.05;49.16;56952.91;5082839;28;20028;-79
2024/03/22 11:12:00;;;;;;;17.17;8.00;;;13.30;99.90;;;-144.05;49.58;56925.28;5079446;28;20055;-79
2024/03/22 11:14:26;;;;;;;11.77;7.97;;;17.20;99.90;;;-144.05;49.84;56940.16;5071872;28;20028;-76
2024/03/22 11:16:52;;;;;;;12.85;8.18;;;17.10;99.90;;;-144.05;48.99;56929.53;5068517;28;20100;-78
2024/03/22 11:19:19;;;;;;;16.92;8.45;;;14.00;99.90;;;-144.05;47.91;56944.41;5071065;28;20036;-78
2024/03/22 11:21:44;;;;;;;10.95;7.50;;;17.40;99.90;;;-144.05;48.14;56935.91;5068459;28;20104;-78
2024/03/22 11:24:11;;;;;;;18.02;9.40;;;14.30;99.90;;;-144.05;47.55;56929.53;5065829;28;20063;-77
2024/03/22 11:26:37;;;;;;;13.57;8.32;;;17.80;99.90;;;-144.05;45.66;56957.16;5053252;28;20073;-79
2024/03/22 11:29:04;;;;;;;16.67;8.30;;;;;;;-144.05;46.35;56935.91;5069744;28;20400;-79
2024/03/22 11:31:30;;;;;;;15.98;8.70;;;17.30;99.90;;;-144.05;47.29;56961.41;5070257;28;20029;-79
2024/03/22 11:33:56;;;;;;;12.27;8.55;;;17.80;99.90;;;-144.05;47.10;56938.03;5069376;28;20060;-79
2024/03/22 11:36:23;;;;;;;15.63;8.63;;;18.30;99.90;;;-144.05;47.94;56921.06;5071861;28;20084;-78
2024/03/22 11:38:50;;;;;;;12.23;7.80;;;17.80;99.90;;;-144.05;47.84;56963.53;5061958;28;20032;-77
2024/03/22 11:41:31;;;;;;;14.07;7.88;;;17.70;99.90;;;-144.05;47.48;56931.66;5054536;28;20123;-77
2024/03/22 11:44:00;;;;;;;12.93;7.20;;;16.70;99.90;;;-144.05;47.45;56940.16;5067322;28;20037;-79
2024/03/22 11:46:28;;;;;;;13.60;7.95;;;18.00;99.90;;;-144.05;47.09;56955.03;5071730;28;20029;-76
2024/03/22 11:48:54;;;;;;;12.43;7.70;;;17.00;99.90;;;-144.05;48.45;56948.66;5069168;28;20076;-78
2024/03/22 11:51:22;;;;;;;14.15;8.52;;;17.70;99.90;;;-144.05;48.57;56946.53;5071515;28;20052;-78
2024/03/22 11:53:53;;;;;;;15.80;8.95;;;17.40;99.90;;;-144.05;49.28;56931.66;5066249;28;20030;-78
2024/03/22 11:56:20;;;;;;;15.18;8.93;;;17.10;99.90;;;-144.05;50.14;56925.28;5070956;28;20050;-77
2024/03/22 11:58:58;;;;;;;12.90;7.28;;;17.30;99.90;;;-144.05;49.67;56955.03;5069190;28;20033;-78
2024/03/22 12:01:24;;;;;;;17.15;7.88;;;13.80;99.90;;;-144.05;50.52;56935.91;5068790;28;20020;-80
2024/03/22 12:03:50;;;;;;;13.07;7.95;;;16.80;99.90;;;-144.05;50.37;56925.28;5069408;28;20024;-77
2024/03/22 12:06:16;;;;;;;12.30;7.47;;;17.10;99.90;;;-144.05;51.46;56959.28;5068937;28;20537;-80
2024/03/22 12:08:42;;;;;;;12.05;8.27;;;16.00;99.90;;;-144.05;51.88;56955.03;5051692;28;20035;-79
2024/03/22 12:11:10;;;;;;;15.23;8.40;;;16.00;99.90;;;-144.05;51.80;56938.03;5070439;28;20075;-81
2024/03/22 12:13:38;;;;;;;13.60;7.60;;;16.50;99.90;;;-144.05;51.97;56938.03;5067999;28;20447;-81
2024/03/22 12:16:05;;;;;;;17.13;8.07;;;16.00;99.90;;;-144.05;52.68;56948.66;5050230;28;20114;-81
2024/03/22 12:18:31;;;;;;;15.57;8.40;;;;;;;-144.05;52.19;56950.78;5070608;28;20025;-82
2024/03/22 12:20:58;;;;;;;15.85;7.53;;;15.90;99.90;;;-144.05;52.63;56972.03;5067086;28;20056;-80
2024/03/22 12:23:24;;;;;;;11.30;7.10;;;16.30;99.90;;;-144.05;53.53;56910.44;5070738;28;20057;-78
2024/03/22 12:25:53;;;;;;;12.27;8.23;;;12.50;99.90;;;-144.05;52.50;56940.16;5071418;28;20052;-78
2024/03/22 12:28:21;;;;;;;14.45;7.82;;;16.40;99.90;;;-144.05;53.31;56965.66;5076073;28;20025;-81
2024/03/22 12:30:51;;;;;;;14.25;8.75;;;12.60;99.90;;;-144.05;53.21;56935.91;5072004;28;20025;-80
2024/03/22 12:33:16;;;;;;;14.38;9.00;;;16.20;99.90;;;-144.05;53.54;56961.41;5079978;28;20024;-78
2024/03/22 12:35:43;;;;;;;14.15;9.05;;;15.70;99.90;;;-144.05;54.10;56980.53;5049819;28;20351;-78
2024/03/22 12:38:13;;;;;;;19.63;10.60;;;15.80;99.90;;;-144.05;55.16;56918.94;5068620;28;20029;-79
2024/03/22 12:40:40;;;;;;;20.67;10.82;;;;;;;-144.05;55.48;56957.16;5067636;28;20027;-78
2024/03/22 12:43:09;;;;;;;18.10;11.38;;;11.80;99.90;;;-144.05;56.19;56935.91;5057737;28;20025;-77
2024/03/22 12:45:35;;;;;;;18.38;11.07;;;12.20;99.90;;;-144.05;55.96;56927.41;5064235;28;20041;-81
2024/03/22 12:48:00;;;;;;;20.38;12.65;;;14.90;99.90;;;-144.05;56.74;56959.28;5050794;28;20036;-78
2024/03/22 12:50:27;;;;;;;18.55;12.30;;;11.80;99.90;;;-144.05;57.31;56965.66;5069195;28;20036;-76
2024/03/22 12:52:53;;;;;;;33.10;12.60;;;15.20;99.90;;;-144.05;57.68;56933.78;5065947;28;20053;-79
2024/03/22 12:55:19;;;;;;;22.55;13.52;;;;;;;-144.05;57.98;56948.66;5068688;28;20103;-81
2024/03/22 12:57:46;;;;;;;22.88;11.98;;;15.10;99.90;;;-144.05;58.02;56935.91;5065237;28;20031;-81
2024/03/22 13:00:14;;;;;;;20.30;11.93;;;11.10;99.90;;;-144.05;58.14;56938.03;5053006;28;20044;-81
2024/03/22 13:02:40;;;;;;;16.33;11.20;;;11.60;99.90;;;-144.05;58.63;56918.94;5066761;28;20024;-82
2024/03/22 13:05:07;;;;;;;17.70;11.25;;;14.20;99.90;;;-144.05;58.53;56948.66;5051323;28;20056;-80
2024/03/22 13:07:34;;;;;;;21.30;11.77;;;15.10;99.90;;;-144.05;59.35;56933.78;5065891;28;20032;-81
2024/03/22 13:10:00;;;;;;;17.95;11.45;;;14.20;99.90;;;-144.05;58.97;56935.91;5065950;28;20107;-79
2024/03/22 13:12:28;;;;;;;15.38;10.48;;;14.00;99.90;;;-144.05;58.47;56957.16;5069091;28;20115;-80
2024/03/22 13:14:54;;;;;;;20.13;11.57;;;14.00;99.90;;;-144.05;60.91;56950.78;5065812;28;20044;-82
2024/03/22 13:17:20;;;;;;;19.90;11.00;;;14.90;99.90;;;-144.05;62.11;56976.28;5069244;28;20466;-80
2024/03/22 13:19:47;;;;;;;17.75;10.88;;;11.20;99.90;;;-144.05;62.86;56938.03;5060341;28;20043;-80
2024/03/22 13:22:12;;;;;;;16.92;10.63;;;14.40;99.90;;;-144.05;63.38;56916.81;5067947;28;20085;-80
2024/03/22 13:24:38;;;;;;;17.75;11.40;;;14.40;99.90;;;-144.05;64.45;56916.81;5049398;28;20056;-82